sensor_id;sensor_type;location;lat;lon;timestamp;P1;durP1;ratioP1;P2;durP2;ratioP2
83190;SDS011;73087;49.924;22.080;2024-02-04T00:00:44;5.90;;;3.05;;
83190;SDS011;73087;49.924;22.080;2024-02-04T00:01:44;5.15;;;2.78;;
83190;SDS011;73087;49.924;22.080;2024-02-04T00:02:45;6.13;;;2.92;;
83190;SDS011;73087;49.924;22.080;2024-02-04T00:03:45;7.53;;;3.00;;
83190;SDS011;73087;49.924;22.080;2024-02-04T00:04:46;3.92;;;2.63;;
83190;SDS011;73087;49.924;22.080;2024-02-04T00:05:46;5.55;;;2.40;;
83190;SDS011;73087;49.924;22.080;2024-02-04T00:06:47;4.80;;;2.90;;
83190;SDS011;73087;49.924;22.080;2024-02-04T00:07:48;4.35;;;2.50;;
83190;SDS011;73087;49.924;22.080;2024-02-04T00:08:49;4.80;;;2.65;;
83190;SDS011;73087;49.924;22.080;2024-02-04T00:09:50;4.70;;;2.65;;
83190;SDS011;73087;49.924;22.080;2024-02-04T00:10:51;4.90;;;2.97;;
83190;SDS011;73087;49.924;22.080;2024-02-04T00:11:51;4.70;;;2.70;;
83190;SDS011;73087;49.924;22.080;2024-02-04T00:12:52;6.88;;;2.90;;
83190;SDS011;73087;49.924;22.080;2024-02-04T00:13:52;5.10;;;2.47;;
83190;SDS011;73087;49.924;22.080;2024-02-04T00:14:53;2.92;;;2.28;;
83190;SDS011;73087;49.924;22.080;2024-02-04T00:15:53;4.97;;;2.90;;
83190;SDS011;73087;49.924;22.080;2024-02-04T00:16:54;3.90;;;2.67;;
83190;SDS011;73087;49.924;22.080;2024-02-04T00:17:54;3.38;;;2.38;;
83190;SDS011;73087;49.924;22.080;2024-02-04T00:18:55;5.40;;;3.35;;
83190;SDS011;73087;49.924;22.080;2024-02-04T00:19:55;5.40;;;2.90;;
83190;SDS011;73087;49.924;22.080;2024-02-04T00:20:56;5.47;;;2.67;;
83190;SDS011;73087;49.924;22.080;2024-02-04T00:21:56;5.13;;;3.38;;
83190;SDS011;73087;49.924;22.080;2024-02-04T00:22:57;5.60;;;3.17;;
83190;SDS011;73087;49.924;22.080;2024-02-04T00:23:59;5.40;;;3.15;;
83190;SDS011;73087;49.924;22.080;2024-02-04T00:24:59;4.43;;;2.80;;
83190;SDS011;73087;49.924;22.080;2024-02-04T00:26:00;5.25;;;3.40;;
83190;SDS011;73087;49.924;22.080;2024-02-04T00:27:01;4.78;;;3.40;;
83190;SDS011;73087;49.924;22.080;2024-02-04T00:28:02;3.28;;;2.38;;
83190;SDS011;73087;49.924;22.080;2024-02-04T00:29:02;5.35;;;3.17;;
83190;SDS011;73087;49.924;22.080;2024-02-04T00:30:03;4.35;;;2.75;;
83190;SDS011;73087;49.924;22.080;2024-02-04T00:31:05;5.60;;;3.53;;
83190;SDS011;73087;49.924;22.080;2024-02-04T00:32:06;5.07;;;2.90;;
83190;SDS011;73087;49.924;22.080;2024-02-04T00:33:06;5.53;;;3.70;;
83190;SDS011;73087;49.924;22.080;2024-02-04T00:34:07;5.78;;;3.10;;
83190;SDS011;73087;49.924;22.080;2024-02-04T00:35:07;5.63;;;3.60;;
83190;SDS011;73087;49.924;22.080;2024-02-04T00:36:08;4.55;;;2.80;;
83190;SDS011;73087;49.924;22.080;2024-02-04T00:37:09;4.57;;;2.88;;
83190;SDS011;73087;49.924;22.080;2024-02-04T00:38:09;5.68;;;3.60;;
83190;SDS011;73087;49.924;22.080;2024-02-04T00:39:11;3.70;;;2.38;;
83190;SDS011;73087;49.924;22.080;2024-02-04T00:40:12;4.82;;;3.20;;
83190;SDS011;73087;49.924;22.080;2024-02-04T00:41:12;5.32;;;3.10;;
83190;SDS011;73087;49.924;22.080;2024-02-04T00:42:13;5.43;;;2.80;;
83190;SDS011;73087;49.924;22.080;2024-02-04T00:43:13;5.97;;;3.72;;
83190;SDS011;73087;49.924;22.080;2024-02-04T00:44:14;6.22;;;3.85;;
83190;SDS011;73087;49.924;22.080;2024-02-04T00:45:14;6.20;;;3.55;;
83190;SDS011;73087;49.924;22.080;2024-02-04T00:46:15;5.05;;;3.30;;
83190;SDS011;73087;49.924;22.080;2024-02-04T00:47:15;4.45;;;3.20;;
83190;SDS011;73087;49.924;22.080;2024-02-04T00:48:16;2.95;;;2.45;;
83190;SDS011;73087;49.924;22.080;2024-02-04T00:49:16;4.75;;;2.35;;
83190;SDS011;73087;49.924;22.080;2024-02-04T00:50:17;4.88;;;2.95;;
83190;SDS011;73087;49.924;22.080;2024-02-04T00:51:18;4.13;;;2.35;;
83190;SDS011;73087;49.924;22.080;2024-02-04T00:52:18;4.97;;;3.80;;
83190;SDS011;73087;49.924;22.080;2024-02-04T00:53:19;4.28;;;3.35;;
83190;SDS011;73087;49.924;22.080;2024-02-04T00:54:21;5.75;;;3.08;;
83190;SDS011;73087;49.924;22.080;2024-02-04T00:55:21;5.30;;;3.35;;
83190;SDS011;73087;49.924;22.080;2024-02-04T00:56:22;6.75;;;3.65;;
83190;SDS011;73087;49.924;22.080;2024-02-04T00:57:22;5.85;;;3.75;;
83190;SDS011;73087;49.924;22.080;2024-02-04T00:58:23;4.85;;;3.08;;
83190;SDS011;73087;49.924;22.080;2024-02-04T00:59:23;5.30;;;3.17;;
83190;SDS011;73087;49.924;22.080;2024-02-04T01:00:24;5.68;;;3.30;;
83190;SDS011;73087;49.924;22.080;2024-02-04T01:01:25;5.47;;;3.47;;
83190;SDS011;73087;49.924;22.080;2024-02-04T01:02:25;4.68;;;3.45;;
83190;SDS011;73087;49.924;22.080;2024-02-04T01:03:26;4.93;;;3.42;;
83190;SDS011;73087;49.924;22.080;2024-02-04T01:04:26;5.25;;;3.40;;
83190;SDS011;73087;49.924;22.080;2024-02-04T01:05:27;6.10;;;4.10;;
83190;SDS011;73087;49.924;22.080;2024-02-04T01:06:27;5.80;;;3.60;;
83190;SDS011;73087;49.924;22.080;2024-02-04T01:07:28;7.05;;;3.47;;
83190;SDS011;73087;49.924;22.080;2024-02-04T01:08:29;7.28;;;4.63;;
83190;SDS011;73087;49.924;22.080;2024-02-04T01:09:30;6.00;;;4.13;;
83190;SDS011;73087;49.924;22.080;2024-02-04T01:10:31;7.55;;;5.57;;
83190;SDS011;73087;49.924;22.080;2024-02-04T01:11:32;7.20;;;4.63;;
83190;SDS011;73087;49.924;22.080;2024-02-04T01:12:32;6.03;;;3.83;;
83190;SDS011;73087;49.924;22.080;2024-02-04T01:13:33;6.32;;;4.18;;
83190;SDS011;73087;49.924;22.080;2024-02-04T01:14:33;7.05;;;4.90;;
83190;SDS011;73087;49.924;22.080;2024-02-04T01:15:34;7.18;;;4.30;;
83190;SDS011;73087;49.924;22.080;2024-02-04T01:16:34;5.47;;;3.47;;
83190;SDS011;73087;49.924;22.080;2024-02-04T01:17:35;7.38;;;4.85;;
83190;SDS011;73087;49.924;22.080;2024-02-04T01:18:35;5.95;;;3.83;;
83190;SDS011;73087;49.924;22.080;2024-02-04T01:19:36;7.60;;;5.75;;
83190;SDS011;73087;49.924;22.080;2024-02-04T01:20:36;7.50;;;4.68;;
83190;SDS011;73087;49.924;22.080;2024-02-04T01:21:37;7.82;;;5.45;;
83190;SDS011;73087;49.924;22.080;2024-02-04T01:22:37;5.43;;;3.88;;
83190;SDS011;73087;49.924;22.080;2024-02-04T01:23:38;5.90;;;3.13;;
83190;SDS011;73087;49.924;22.080;2024-02-04T01:24:40;6.80;;;4.78;;
83190;SDS011;73087;49.924;22.080;2024-02-04T01:25:40;6.70;;;4.47;;
83190;SDS011;73087;49.924;22.080;2024-02-04T01:26:41;7.30;;;4.65;;
83190;SDS011;73087;49.924;22.080;2024-02-04T01:27:41;8.30;;;4.35;;
83190;SDS011;73087;49.924;22.080;2024-02-04T01:28:42;5.60;;;3.88;;
83190;SDS011;73087;49.924;22.080;2024-02-04T01:29:42;7.47;;;4.40;;
83190;SDS011;73087;49.924;22.080;2024-02-04T01:30:43;6.75;;;3.63;;
83190;SDS011;73087;49.924;22.080;2024-02-04T01:31:43;5.07;;;4.03;;
83190;SDS011;73087;49.924;22.080;2024-02-04T01:32:44;6.30;;;4.57;;
83190;SDS011;73087;49.924;22.080;2024-02-04T01:33:44;4.53;;;2.72;;
83190;SDS011;73087;49.924;22.080;2024-02-04T01:34:45;4.35;;;2.97;;
83190;SDS011;73087;49.924;22.080;2024-02-04T01:35:46;5.65;;;3.70;;
83190;SDS011;73087;49.924;22.080;2024-02-04T01:36:46;5.22;;;3.50;;
83190;SDS011;73087;49.924;22.080;2024-02-04T01:37:47;4.05;;;2.30;;
83190;SDS011;73087;49.924;22.080;2024-02-04T01:38:47;5.65;;;3.75;;
83190;SDS011;73087;49.924;22.080;2024-02-04T01:39:49;4.60;;;3.20;;
83190;SDS011;73087;49.924;22.080;2024-02-04T01:40:50;4.40;;;3.30;;
83190;SDS011;73087;49.924;22.080;2024-02-04T01:41:50;3.83;;;2.10;;
83190;SDS011;73087;49.924;22.080;2024-02-04T01:42:51;5.07;;;2.63;;
83190;SDS011;73087;49.924;22.080;2024-02-04T01:43:51;3.90;;;2.97;;
83190;SDS011;73087;49.924;22.080;2024-02-04T01:44:52;4.80;;;2.83;;
83190;SDS011;73087;49.924;22.080;2024-02-04T01:45:52;6.20;;;3.40;;
83190;SDS011;73087;49.924;22.080;2024-02-04T01:46:53;6.38;;;3.25;;
83190;SDS011;73087;49.924;22.080;2024-02-04T01:47:54;4.30;;;2.92;;
83190;SDS011;73087;49.924;22.080;2024-02-04T01:48:54;3.30;;;2.45;;
83190;SDS011;73087;49.924;22.080;2024-02-04T01:49:55;2.78;;;1.92;;
83190;SDS011;73087;49.924;22.080;2024-02-04T01:50:56;5.68;;;3.00;;
83190;SDS011;73087;49.924;22.080;2024-02-04T01:51:59;3.47;;;2.40;;
83190;SDS011;73087;49.924;22.080;2024-02-04T01:53:00;3.88;;;3.00;;
83190;SDS011;73087;49.924;22.080;2024-02-04T01:54:01;5.90;;;3.53;;
83190;SDS011;73087;49.924;22.080;2024-02-04T01:55:04;4.57;;;3.13;;
83190;SDS011;73087;49.924;22.080;2024-02-04T01:56:05;6.38;;;2.95;;
83190;SDS011;73087;49.924;22.080;2024-02-04T01:57:06;4.93;;;2.95;;
83190;SDS011;73087;49.924;22.080;2024-02-04T01:58:09;4.18;;;2.75;;
83190;SDS011;73087;49.924;22.080;2024-02-04T01:59:10;4.13;;;2.80;;
83190;SDS011;73087;49.924;22.080;2024-02-04T02:00:11;6.25;;;3.55;;
83190;SDS011;73087;49.924;22.080;2024-02-04T02:01:13;5.25;;;3.28;;
83190;SDS011;73087;49.924;22.080;2024-02-04T02:02:14;4.05;;;2.78;;
83190;SDS011;73087;49.924;22.080;2024-02-04T02:03:14;4.07;;;3.13;;
83190;SDS011;73087;49.924;22.080;2024-02-04T02:04:15;5.03;;;2.25;;
83190;SDS011;73087;49.924;22.080;2024-02-04T02:05:16;4.28;;;3.10;;
83190;SDS011;73087;49.924;22.080;2024-02-04T02:06:17;3.83;;;2.92;;
83190;SDS011;73087;49.924;22.080;2024-02-04T02:07:17;4.20;;;2.65;;
83190;SDS011;73087;49.924;22.080;2024-02-04T02:08:18;5.97;;;3.00;;
83190;SDS011;73087;49.924;22.080;2024-02-04T02:09:19;2.78;;;2.08;;
83190;SDS011;73087;49.924;22.080;2024-02-04T02:10:21;5.07;;;2.50;;
83190;SDS011;73087;49.924;22.080;2024-02-04T02:11:24;3.05;;;1.88;;
83190;SDS011;73087;49.924;22.080;2024-02-04T02:12:33;3.70;;;2.35;;
83190;SDS011;73087;49.924;22.080;2024-02-04T02:13:39;4.13;;;2.42;;
83190;SDS011;73087;49.924;22.080;2024-02-04T02:14:42;2.88;;;2.15;;
83190;SDS011;73087;49.924;22.080;2024-02-04T02:15:48;4.95;;;2.42;;
83190;SDS011;73087;49.924;22.080;2024-02-04T02:16:51;5.07;;;2.45;;
83190;SDS011;73087;49.924;22.080;2024-02-04T02:17:55;3.15;;;2.30;;
83190;SDS011;73087;49.924;22.080;2024-02-04T02:19:00;2.38;;;1.60;;
83190;SDS011;73087;49.924;22.080;2024-02-04T02:20:12;4.13;;;2.42;;
83190;SDS011;73087;49.924;22.080;2024-02-04T02:21:22;3.35;;;1.73;;
83190;SDS011;73087;49.924;22.080;2024-02-04T02:22:41;3.47;;;2.30;;
83190;SDS011;73087;49.924;22.080;2024-02-04T02:23:48;3.15;;;1.92;;
83190;SDS011;73087;49.924;22.080;2024-02-04T02:25:02;5.43;;;2.22;;
83190;SDS011;73087;49.924;22.080;2024-02-04T02:26:03;2.97;;;2.00;;
83190;SDS011;73087;49.924;22.080;2024-02-04T02:27:05;2.22;;;1.63;;
83190;SDS011;73087;49.924;22.080;2024-02-04T02:28:06;3.28;;;2.28;;
83190;SDS011;73087;49.924;22.080;2024-02-04T02:29:07;3.40;;;2.28;;
83190;SDS011;73087;49.924;22.080;2024-02-04T02:30:08;3.28;;;2.45;;
83190;SDS011;73087;49.924;22.080;2024-02-04T02:31:09;3.38;;;2.10;;
83190;SDS011;73087;49.924;22.080;2024-02-04T02:32:09;5.07;;;2.83;;
83190;SDS011;73087;49.924;22.080;2024-02-04T02:33:10;4.03;;;3.08;;
83190;SDS011;73087;49.924;22.080;2024-02-04T02:34:11;4.53;;;3.15;;
83190;SDS011;73087;49.924;22.080;2024-02-04T02:35:12;4.40;;;2.90;;
83190;SDS011;73087;49.924;22.080;2024-02-04T02:36:15;4.80;;;3.17;;
83190;SDS011;73087;49.924;22.080;2024-02-04T02:37:22;5.15;;;3.63;;
83190;SDS011;73087;49.924;22.080;2024-02-04T02:38:29;3.70;;;2.55;;
83190;SDS011;73087;49.924;22.080;2024-02-04T02:39:37;4.93;;;3.42;;
83190;SDS011;73087;49.924;22.080;2024-02-04T02:40:45;3.97;;;2.92;;
83190;SDS011;73087;49.924;22.080;2024-02-04T02:41:48;4.70;;;3.28;;
83190;SDS011;73087;49.924;22.080;2024-02-04T02:42:50;6.10;;;3.25;;
83190;SDS011;73087;49.924;22.080;2024-02-04T02:43:52;5.47;;;3.38;;
83190;SDS011;73087;49.924;22.080;2024-02-04T02:44:54;4.63;;;2.85;;
83190;SDS011;73087;49.924;22.080;2024-02-04T02:45:56;5.45;;;3.50;;
83190;SDS011;73087;49.924;22.080;2024-02-04T02:46:57;4.40;;;2.90;;
83190;SDS011;73087;49.924;22.080;2024-02-04T02:47:59;5.82;;;2.95;;
83190;SDS011;73087;49.924;22.080;2024-02-04T02:49:01;5.28;;;3.10;;
83190;SDS011;73087;49.924;22.080;2024-02-04T02:50:02;5.65;;;2.95;;
83190;SDS011;73087;49.924;22.080;2024-02-04T02:51:03;5.82;;;3.08;;
83190;SDS011;73087;49.924;22.080;2024-02-04T02:52:05;4.35;;;2.15;;
83190;SDS011;73087;49.924;22.080;2024-02-04T02:53:06;4.63;;;2.78;;
83190;SDS011;73087;49.924;22.080;2024-02-04T02:54:06;5.50;;;3.33;;
83190;SDS011;73087;49.924;22.080;2024-02-04T02:55:07;6.35;;;3.60;;
83190;SDS011;73087;49.924;22.080;2024-02-04T02:56:09;4.53;;;2.88;;
83190;SDS011;73087;49.924;22.080;2024-02-04T02:57:10;4.70;;;2.60;;
83190;SDS011;73087;49.924;22.080;2024-02-04T02:58:11;4.30;;;2.92;;
83190;SDS011;73087;49.924;22.080;2024-02-04T02:59:11;4.63;;;3.25;;
83190;SDS011;73087;49.924;22.080;2024-02-04T03:00:13;4.60;;;2.80;;
83190;SDS011;73087;49.924;22.080;2024-02-04T03:01:14;4.50;;;2.70;;
83190;SDS011;73087;49.924;22.080;2024-02-04T03:02:14;4.65;;;2.67;;
83190;SDS011;73087;49.924;22.080;2024-02-04T03:03:15;4.57;;;3.00;;
83190;SDS011;73087;49.924;22.080;2024-02-04T03:04:15;3.85;;;2.78;;
83190;SDS011;73087;49.924;22.080;2024-02-04T03:05:16;3.85;;;2.72;;
83190;SDS011;73087;49.924;22.080;2024-02-04T03:06:16;4.68;;;2.85;;
83190;SDS011;73087;49.924;22.080;2024-02-04T03:07:17;4.95;;;3.00;;
83190;SDS011;73087;49.924;22.080;2024-02-04T03:08:17;4.25;;;2.45;;
83190;SDS011;73087;49.924;22.080;2024-02-04T03:09:18;3.38;;;2.25;;
83190;SDS011;73087;49.924;22.080;2024-02-04T03:10:19;2.83;;;1.90;;
83190;SDS011;73087;49.924;22.080;2024-02-04T03:11:20;4.13;;;1.95;;
83190;SDS011;73087;49.924;22.080;2024-02-04T03:12:21;3.17;;;1.77;;
83190;SDS011;73087;49.924;22.080;2024-02-04T03:13:21;4.32;;;2.45;;
83190;SDS011;73087;49.924;22.080;2024-02-04T03:14:22;3.72;;;2.40;;
83190;SDS011;73087;49.924;22.080;2024-02-04T03:15:23;2.92;;;2.10;;
83190;SDS011;73087;49.924;22.080;2024-02-04T03:16:23;4.35;;;1.90;;
83190;SDS011;73087;49.924;22.080;2024-02-04T03:17:24;3.97;;;2.50;;
83190;SDS011;73087;49.924;22.080;2024-02-04T03:18:25;3.67;;;2.10;;
83190;SDS011;73087;49.924;22.080;2024-02-04T03:19:26;4.10;;;2.33;;
83190;SDS011;73087;49.924;22.080;2024-02-04T03:20:26;4.20;;;2.33;;
83190;SDS011;73087;49.924;22.080;2024-02-04T03:21:27;4.95;;;2.40;;
83190;SDS011;73087;49.924;22.080;2024-02-04T03:22:27;2.58;;;1.80;;
83190;SDS011;73087;49.924;22.080;2024-02-04T03:23:28;3.08;;;2.25;;
83190;SDS011;73087;49.924;22.080;2024-02-04T03:24:28;3.40;;;2.28;;
83190;SDS011;73087;49.924;22.080;2024-02-04T03:25:29;3.50;;;2.30;;
83190;SDS011;73087;49.924;22.080;2024-02-04T03:26:31;3.15;;;1.80;;
83190;SDS011;73087;49.924;22.080;2024-02-04T03:27:31;3.67;;;2.45;;
83190;SDS011;73087;49.924;22.080;2024-02-04T03:28:32;5.00;;;3.05;;
83190;SDS011;73087;49.924;22.080;2024-02-04T03:29:32;4.22;;;2.80;;
83190;SDS011;73087;49.924;22.080;2024-02-04T03:30:33;3.95;;;2.40;;
83190;SDS011;73087;49.924;22.080;2024-02-04T03:31:33;4.43;;;2.80;;
83190;SDS011;73087;49.924;22.080;2024-02-04T03:32:34;4.03;;;2.60;;
83190;SDS011;73087;49.924;22.080;2024-02-04T03:33:34;3.55;;;2.63;;
83190;SDS011;73087;49.924;22.080;2024-02-04T03:34:35;4.43;;;2.80;;
83190;SDS011;73087;49.924;22.080;2024-02-04T03:35:35;3.40;;;2.35;;
83190;SDS011;73087;49.924;22.080;2024-02-04T03:36:36;4.47;;;3.30;;
83190;SDS011;73087;49.924;22.080;2024-02-04T03:37:37;3.75;;;2.28;;
83190;SDS011;73087;49.924;22.080;2024-02-04T03:38:38;4.15;;;2.30;;
83190;SDS011;73087;49.924;22.080;2024-02-04T03:39:38;4.32;;;2.55;;
83190;SDS011;73087;49.924;22.080;2024-02-04T03:40:39;7.30;;;3.40;;
83190;SDS011;73087;49.924;22.080;2024-02-04T03:41:41;3.53;;;2.70;;
83190;SDS011;73087;49.924;22.080;2024-02-04T03:42:42;3.65;;;2.53;;
83190;SDS011;73087;49.924;22.080;2024-02-04T03:43:42;4.43;;;2.92;;
83190;SDS011;73087;49.924;22.080;2024-02-04T03:44:43;5.22;;;2.83;;
83190;SDS011;73087;49.924;22.080;2024-02-04T03:45:44;4.85;;;3.00;;
83190;SDS011;73087;49.924;22.080;2024-02-04T03:46:47;4.18;;;2.88;;
83190;SDS011;73087;49.924;22.080;2024-02-04T03:47:47;3.88;;;2.33;;
83190;SDS011;73087;49.924;22.080;2024-02-04T03:48:48;4.07;;;2.08;;
83190;SDS011;73087;49.924;22.080;2024-02-04T03:49:48;2.85;;;2.10;;
83190;SDS011;73087;49.924;22.080;2024-02-04T03:50:49;3.05;;;2.25;;
83190;SDS011;73087;49.924;22.080;2024-02-04T03:51:50;2.83;;;2.35;;
83190;SDS011;73087;49.924;22.080;2024-02-04T03:52:50;2.75;;;1.98;;
83190;SDS011;73087;49.924;22.080;2024-02-04T03:53:51;4.72;;;2.22;;
83190;SDS011;73087;49.924;22.080;2024-02-04T03:54:51;4.82;;;2.35;;
83190;SDS011;73087;49.924;22.080;2024-02-04T03:55:55;2.92;;;2.00;;
83190;SDS011;73087;49.924;22.080;2024-02-04T03:57:14;4.63;;;2.50;;
83190;SDS011;73087;49.924;22.080;2024-02-04T03:58:14;3.58;;;1.90;;
83190;SDS011;73087;49.924;22.080;2024-02-04T03:59:15;3.75;;;2.47;;
83190;SDS011;73087;49.924;22.080;2024-02-04T04:00:16;2.40;;;1.60;;
83190;SDS011;73087;49.924;22.080;2024-02-04T04:01:17;3.53;;;2.55;;
83190;SDS011;73087;49.924;22.080;2024-02-04T04:02:17;4.65;;;2.60;;
83190;SDS011;73087;49.924;22.080;2024-02-04T04:03:18;3.33;;;2.65;;
83190;SDS011;73087;49.924;22.080;2024-02-04T04:04:18;3.30;;;2.47;;
83190;SDS011;73087;49.924;22.080;2024-02-04T04:05:19;3.13;;;2.00;;
83190;SDS011;73087;49.924;22.080;2024-02-04T04:06:19;3.70;;;2.35;;
83190;SDS011;73087;49.924;22.080;2024-02-04T04:07:20;2.92;;;2.10;;
83190;SDS011;73087;49.924;22.080;2024-02-04T04:08:20;3.28;;;2.38;;
83190;SDS011;73087;49.924;22.080;2024-02-04T04:09:21;2.78;;;1.90;;
83190;SDS011;73087;49.924;22.080;2024-02-04T04:10:21;4.03;;;2.50;;
83190;SDS011;73087;49.924;22.080;2024-02-04T04:11:22;3.70;;;2.50;;
83190;SDS011;73087;49.924;22.080;2024-02-04T04:12:24;3.40;;;2.05;;
83190;SDS011;73087;49.924;22.080;2024-02-04T04:13:24;4.05;;;2.03;;
83190;SDS011;73087;49.924;22.080;2024-02-04T04:14:25;3.83;;;2.03;;
83190;SDS011;73087;49.924;22.080;2024-02-04T04:15:25;3.13;;;2.00;;
83190;SDS011;73087;49.924;22.080;2024-02-04T04:16:26;3.63;;;2.08;;
83190;SDS011;73087;49.924;22.080;2024-02-04T04:17:26;2.97;;;1.75;;
83190;SDS011;73087;49.924;22.080;2024-02-04T04:18:27;2.88;;;1.70;;
83190;SDS011;73087;49.924;22.080;2024-02-04T04:19:27;2.78;;;1.83;;
83190;SDS011;73087;49.924;22.080;2024-02-04T04:20:28;2.28;;;1.63;;
83190;SDS011;73087;49.924;22.080;2024-02-04T04:21:29;2.17;;;1.55;;
83190;SDS011;73087;49.924;22.080;2024-02-04T04:22:29;3.65;;;1.90;;
83190;SDS011;73087;49.924;22.080;2024-02-04T04:23:30;2.50;;;1.70;;
83190;SDS011;73087;49.924;22.080;2024-02-04T04:24:30;3.75;;;1.80;;
83190;SDS011;73087;49.924;22.080;2024-02-04T04:25:31;2.85;;;1.85;;
83190;SDS011;73087;49.924;22.080;2024-02-04T04:26:31;2.28;;;1.50;;
83190;SDS011;73087;49.924;22.080;2024-02-04T04:27:33;3.30;;;1.52;;
83190;SDS011;73087;49.924;22.080;2024-02-04T04:28:34;2.63;;;1.30;;
83190;SDS011;73087;49.924;22.080;2024-02-04T04:29:34;2.58;;;1.60;;
83190;SDS011;73087;49.924;22.080;2024-02-04T04:30:35;2.08;;;1.48;;
83190;SDS011;73087;49.924;22.080;2024-02-04T04:31:35;2.17;;;1.50;;
83190;SDS011;73087;49.924;22.080;2024-02-04T04:32:36;3.95;;;1.60;;
83190;SDS011;73087;49.924;22.080;2024-02-04T04:33:37;2.55;;;1.33;;
83190;SDS011;73087;49.924;22.080;2024-02-04T04:34:37;2.65;;;1.30;;
83190;SDS011;73087;49.924;22.080;2024-02-04T04:35:38;2.58;;;1.20;;
83190;SDS011;73087;49.924;22.080;2024-02-04T04:36:38;3.25;;;1.25;;
83190;SDS011;73087;49.924;22.080;2024-02-04T04:37:39;2.00;;;1.20;;
83190;SDS011;73087;49.924;22.080;2024-02-04T04:38:39;2.85;;;1.05;;
83190;SDS011;73087;49.924;22.080;2024-02-04T04:39:40;1.88;;;1.33;;
83190;SDS011;73087;49.924;22.080;2024-02-04T04:40:40;2.55;;;1.23;;
83190;SDS011;73087;49.924;22.080;2024-02-04T04:41:43;2.22;;;1.17;;
83190;SDS011;73087;49.924;22.080;2024-02-04T04:42:46;6.32;;;1.73;;
83190;SDS011;73087;49.924;22.080;2024-02-04T04:43:46;2.08;;;1.30;;
83190;SDS011;73087;49.924;22.080;2024-02-04T04:44:47;2.03;;;1.25;;
83190;SDS011;73087;49.924;22.080;2024-02-04T04:45:47;2.35;;;1.02;;
83190;SDS011;73087;49.924;22.080;2024-02-04T04:46:48;2.20;;;1.20;;
83190;SDS011;73087;49.924;22.080;2024-02-04T04:47:49;3.30;;;1.27;;
83190;SDS011;73087;49.924;22.080;2024-02-04T04:48:49;2.47;;;1.27;;
83190;SDS011;73087;49.924;22.080;2024-02-04T04:49:50;1.45;;;0.90;;
83190;SDS011;73087;49.924;22.080;2024-02-04T04:50:50;2.50;;;1.33;;
83190;SDS011;73087;49.924;22.080;2024-02-04T04:51:51;2.63;;;1.17;;
83190;SDS011;73087;49.924;22.080;2024-02-04T04:52:51;1.15;;;1.00;;
83190;SDS011;73087;49.924;22.080;2024-02-04T04:53:52;2.28;;;0.93;;
83190;SDS011;73087;49.924;22.080;2024-02-04T04:54:52;1.92;;;1.15;;
83190;SDS011;73087;49.924;22.080;2024-02-04T04:55:53;1.65;;;0.70;;
83190;SDS011;73087;49.924;22.080;2024-02-04T04:56:53;1.50;;;0.82;;
83190;SDS011;73087;49.924;22.080;2024-02-04T04:57:55;3.13;;;1.00;;
83190;SDS011;73087;49.924;22.080;2024-02-04T04:58:56;1.52;;;1.00;;
83190;SDS011;73087;49.924;22.080;2024-02-04T04:59:56;2.38;;;1.00;;
83190;SDS011;73087;49.924;22.080;2024-02-04T05:00:57;1.40;;;1.00;;
83190;SDS011;73087;49.924;22.080;2024-02-04T05:01:57;3.47;;;0.85;;
83190;SDS011;73087;49.924;22.080;2024-02-04T05:02:58;3.45;;;1.15;;
83190;SDS011;73087;49.924;22.080;2024-02-04T05:03:58;2.28;;;1.20;;
83190;SDS011;73087;49.924;22.080;2024-02-04T05:04:59;1.63;;;0.98;;
83190;SDS011;73087;49.924;22.080;2024-02-04T05:06:00;2.55;;;1.40;;
83190;SDS011;73087;49.924;22.080;2024-02-04T05:07:00;2.00;;;0.98;;
83190;SDS011;73087;49.924;22.080;2024-02-04T05:08:01;2.20;;;1.00;;
83190;SDS011;73087;49.924;22.080;2024-02-04T05:09:01;2.78;;;1.10;;
83190;SDS011;73087;49.924;22.080;2024-02-04T05:10:02;1.25;;;0.85;;
83190;SDS011;73087;49.924;22.080;2024-02-04T05:11:03;3.63;;;0.88;;
83190;SDS011;73087;49.924;22.080;2024-02-04T05:12:04;1.98;;;1.30;;
83190;SDS011;73087;49.924;22.080;2024-02-04T05:13:08;2.70;;;1.13;;
83190;SDS011;73087;49.924;22.080;2024-02-04T05:14:08;1.95;;;1.10;;
83190;SDS011;73087;49.924;22.080;2024-02-04T05:15:09;1.75;;;0.90;;
83190;SDS011;73087;49.924;22.080;2024-02-04T05:16:09;2.30;;;1.38;;
83190;SDS011;73087;49.924;22.080;2024-02-04T05:17:10;2.38;;;1.20;;
83190;SDS011;73087;49.924;22.080;2024-02-04T05:18:11;1.08;;;0.90;;
83190;SDS011;73087;49.924;22.080;2024-02-04T05:19:11;2.47;;;1.02;;
83190;SDS011;73087;49.924;22.080;2024-02-04T05:20:12;1.95;;;0.98;;
83190;SDS011;73087;49.924;22.080;2024-02-04T05:21:12;2.30;;;1.30;;
83190;SDS011;73087;49.924;22.080;2024-02-04T05:22:13;2.72;;;1.38;;
83190;SDS011;73087;49.924;22.080;2024-02-04T05:23:13;1.58;;;0.90;;
83190;SDS011;73087;49.924;22.080;2024-02-04T05:24:14;3.63;;;1.50;;
83190;SDS011;73087;49.924;22.080;2024-02-04T05:25:14;1.55;;;0.88;;
83190;SDS011;73087;49.924;22.080;2024-02-04T05:26:17;1.70;;;0.80;;
83190;SDS011;73087;49.924;22.080;2024-02-04T05:27:17;2.17;;;1.00;;
83190;SDS011;73087;49.924;22.080;2024-02-04T05:28:19;2.08;;;1.23;;
83190;SDS011;73087;49.924;22.080;2024-02-04T05:29:20;3.70;;;1.38;;
83190;SDS011;73087;49.924;22.080;2024-02-04T05:30:20;2.50;;;1.08;;
83190;SDS011;73087;49.924;22.080;2024-02-04T05:31:21;1.83;;;1.08;;
83190;SDS011;73087;49.924;22.080;2024-02-04T05:32:21;2.15;;;1.20;;
83190;SDS011;73087;49.924;22.080;2024-02-04T05:33:22;2.75;;;1.30;;
83190;SDS011;73087;49.924;22.080;2024-02-04T05:34:22;2.45;;;1.15;;
83190;SDS011;73087;49.924;22.080;2024-02-04T05:35:23;2.15;;;1.30;;
83190;SDS011;73087;49.924;22.080;2024-02-04T05:36:23;2.00;;;1.10;;
83190;SDS011;73087;49.924;22.080;2024-02-04T05:37:24;3.35;;;1.35;;
83190;SDS011;73087;49.924;22.080;2024-02-04T05:38:24;4.22;;;1.40;;
83190;SDS011;73087;49.924;22.080;2024-02-04T05:39:25;2.40;;;1.08;;
83190;SDS011;73087;49.924;22.080;2024-02-04T05:40:25;2.10;;;1.27;;
83190;SDS011;73087;49.924;22.080;2024-02-04T05:41:26;2.13;;;1.23;;
83190;SDS011;73087;49.924;22.080;2024-02-04T05:42:26;2.83;;;1.00;;
83190;SDS011;73087;49.924;22.080;2024-02-04T05:43:28;1.30;;;0.90;;
83190;SDS011;73087;49.924;22.080;2024-02-04T05:44:29;2.25;;;1.27;;
83190;SDS011;73087;49.924;22.080;2024-02-04T05:45:29;1.55;;;1.05;;
83190;SDS011;73087;49.924;22.080;2024-02-04T05:46:30;2.15;;;0.90;;
83190;SDS011;73087;49.924;22.080;2024-02-04T05:47:30;2.80;;;1.35;;
83190;SDS011;73087;49.924;22.080;2024-02-04T05:48:31;3.05;;;1.50;;
83190;SDS011;73087;49.924;22.080;2024-02-04T05:49:32;1.92;;;0.98;;
83190;SDS011;73087;49.924;22.080;2024-02-04T05:50:32;1.70;;;1.30;;
83190;SDS011;73087;49.924;22.080;2024-02-04T05:51:37;1.40;;;0.95;;
83190;SDS011;73087;49.924;22.080;2024-02-04T05:52:38;2.97;;;1.10;;
83190;SDS011;73087;49.924;22.080;2024-02-04T05:53:38;2.90;;;1.30;;
83190;SDS011;73087;49.924;22.080;2024-02-04T05:54:39;2.47;;;1.33;;
83190;SDS011;73087;49.924;22.080;2024-02-04T05:55:39;2.58;;;1.50;;
83190;SDS011;73087;49.924;22.080;2024-02-04T05:56:40;2.50;;;0.98;;
83190;SDS011;73087;49.924;22.080;2024-02-04T05:57:40;2.20;;;1.20;;
83190;SDS011;73087;49.924;22.080;2024-02-04T05:58:42;1.88;;;1.10;;
83190;SDS011;73087;49.924;22.080;2024-02-04T05:59:43;2.70;;;1.23;;
83190;SDS011;73087;49.924;22.080;2024-02-04T06:00:43;2.95;;;1.38;;
83190;SDS011;73087;49.924;22.080;2024-02-04T06:01:44;2.78;;;1.60;;
83190;SDS011;73087;49.924;22.080;2024-02-04T06:02:44;2.10;;;1.23;;